Indianapolis, Greenwood Municipal Airport (KHFY)

NameGreenwood Municipal Airport
CityIndianapolis
CountryUnited States
ICAOKHFY
IATA
Altitude251 m
CoordinatesGoogle Map
Live Air TrafficLiveATC.net
METARKHFY 181455Z AUTO 11006KT 10SM CLR 00/M01 A3027 RMK AO2 6//// T00041015
2018-12-18 14:55:00 Wind: East (110°) 3.09 m/s - Visibility: 16093.4 m - Temperature: 0 °C - Dew point: -1 °C - Humidity: 93.1% - Pressure: 1025.06 hPa
Statistics

The table below shows the detailed information of all flights to/from Indianapolis, Greenwood Municipal Airport (KHFY).